createdAt,value
2022-11-02T00:00:45.323Z,77.20
2022-11-02T00:03:12.618Z,77.90
2022-11-02T00:05:39.943Z,77.90
2022-11-02T00:08:07.298Z,78.00
2022-11-02T00:10:34.646Z,78.10
2022-11-02T00:13:02.424Z,78.10
2022-11-02T00:15:33.004Z,78.00
2022-11-02T00:20:39.917Z,78.10
2022-11-02T00:23:10.796Z,78.20
2022-11-02T00:25:42.014Z,78.20
2022-11-02T00:28:09.761Z,78.20
2022-11-02T00:30:38.009Z,78.00
2022-11-02T00:33:05.926Z,77.90
2022-11-02T00:35:34.686Z,77.60
2022-11-02T00:38:03.065Z,77.20
2022-11-02T00:40:31.405Z,76.90
2022-11-02T00:42:59.146Z,76.80
2022-11-02T00:45:26.690Z,76.80
2022-11-02T00:47:54.073Z,76.70
2022-11-02T00:50:22.314Z,76.70
2022-11-02T00:52:50.166Z,76.80
2022-11-02T00:55:18.706Z,77.00
2022-11-02T00:57:46.219Z,77.20
2022-11-02T01:00:15.039Z,78.00
2022-11-02T01:02:43.059Z,77.40
2022-11-02T01:05:11.319Z,77.50
2022-11-02T01:07:39.102Z,77.60
2022-11-02T01:10:08.699Z,77.70
2022-11-02T01:12:38.337Z,77.80
2022-11-02T01:15:10.529Z,77.80
2022-11-02T01:17:38.894Z,77.90
2022-11-02T01:20:07.959Z,77.90
2022-11-02T01:22:35.793Z,78.00
2022-11-02T01:25:03.803Z,78.20
2022-11-02T01:27:31.417Z,78.20
2022-11-02T01:29:58.973Z,78.30
2022-11-02T01:32:30.480Z,78.30
2022-11-02T01:34:57.751Z,78.10
2022-11-02T01:37:25.189Z,77.90
2022-11-02T01:39:52.679Z,77.90
2022-11-02T01:42:22.521Z,77.80
2022-11-02T01:44:50.495Z,77.90
2022-11-02T01:47:29.802Z,77.90
2022-11-02T01:50:05.293Z,78.10
2022-11-02T01:52:36.301Z,78.00
2022-11-02T01:55:21.962Z,78.00
2022-11-02T01:58:01.241Z,77.90
2022-11-02T02:00:28.811Z,77.90
2022-11-02T02:03:05.390Z,77.70
2022-11-02T02:05:35.838Z,77.60
2022-11-02T02:08:04.498Z,77.30
2022-11-02T02:10:32.912Z,77.10
2022-11-02T02:13:01.661Z,77.00
2022-11-02T02:15:41.546Z,76.90
2022-11-02T02:18:34.066Z,76.90
2022-11-02T02:21:27.726Z,76.90
2022-11-02T02:24:27.141Z,76.80
2022-11-02T02:27:41.491Z,76.80
2022-11-02T02:30:10.475Z,77.00
2022-11-02T02:32:53.602Z,76.70
2022-11-02T02:35:31.297Z,76.80
2022-11-02T02:38:03.272Z,76.70
2022-11-02T02:40:46.414Z,76.70
2022-11-02T02:43:20.693Z,76.80
2022-11-02T02:45:58.557Z,76.70
2022-11-02T02:48:26.546Z,76.70
2022-11-02T02:51:01.883Z,76.60
2022-11-02T02:53:33.770Z,76.70
2022-11-02T02:56:02.216Z,76.90
2022-11-02T02:58:36.816Z,77.00
2022-11-02T03:01:06.008Z,77.10
2022-11-02T03:03:35.716Z,77.20
2022-11-02T03:06:26.968Z,77.20
2022-11-02T03:09:18.740Z,77.30
2022-11-02T03:12:06.645Z,77.10
2022-11-02T03:14:49.208Z,77.10
2022-11-02T03:17:32.558Z,77.10
2022-11-02T03:20:29.957Z,77.10
2022-11-02T03:23:27.195Z,77.10
2022-11-02T03:26:12.607Z,77.20
2022-11-02T03:28:57.777Z,77.20
2022-11-02T03:31:32.497Z,77.30
2022-11-02T03:34:37.062Z,77.20
2022-11-02T03:37:40.026Z,77.20
2022-11-02T03:40:27.996Z,77.40
2022-11-02T03:42:56.805Z,77.30
2022-11-02T03:45:30.975Z,77.50
2022-11-02T03:48:06.633Z,77.60
2022-11-02T03:50:37.316Z,77.50
2022-11-02T03:53:10.764Z,77.50
2022-11-02T03:55:53.057Z,77.50
2022-11-02T03:58:20.398Z,77.70
2022-11-02T04:00:58.554Z,77.60
2022-11-02T04:03:27.138Z,77.60
2022-11-02T04:05:55.448Z,77.50
2022-11-02T04:08:40.356Z,77.50
2022-11-02T04:11:28.641Z,77.50
2022-11-02T04:14:20.114Z,77.50
2022-11-02T04:16:47.569Z,77.40
2022-11-02T04:19:30.101Z,77.60
2022-11-02T04:22:22.127Z,77.70
2022-11-02T04:25:12.852Z,77.80
2022-11-02T04:27:42.310Z,77.90
2022-11-02T04:30:11.380Z,78.00
2022-11-02T04:32:59.410Z,78.10
2022-11-02T04:35:31.300Z,77.90
2022-11-02T04:38:18.290Z,77.90
2022-11-02T04:40:46.809Z,77.90
2022-11-02T04:43:14.657Z,77.90
2022-11-02T04:45:42.232Z,78.00
2022-11-02T04:48:10.195Z,78.10
2022-11-02T04:50:39.012Z,78.20
2022-11-02T04:53:09.723Z,78.30
2022-11-02T04:55:39.409Z,78.30
2022-11-02T04:58:07.670Z,78.70
2022-11-02T05:00:35.566Z,78.70
2022-11-02T05:03:05.678Z,78.70
2022-11-02T05:05:36.221Z,78.60
2022-11-02T05:08:04.127Z,78.50
2022-11-02T05:10:31.882Z,78.30
2022-11-02T05:13:00.015Z,78.10
2022-11-02T05:15:31.846Z,78.10
2022-11-02T05:18:00.863Z,78.10
2022-11-02T05:20:31.798Z,78.00
2022-11-02T05:22:59.545Z,78.10
2022-11-02T05:25:27.209Z,78.10
2022-11-02T05:27:57.186Z,78.10
2022-11-02T05:30:24.796Z,78.10
2022-11-02T05:32:57.575Z,78.00
2022-11-02T05:35:26.070Z,78.00
2022-11-02T05:37:55.821Z,78.00
2022-11-02T05:40:24.063Z,77.90
2022-11-02T05:42:51.514Z,77.90
2022-11-02T05:45:22.128Z,78.10
2022-11-02T05:47:52.370Z,78.20
2022-11-02T05:50:20.380Z,78.20
2022-11-02T05:52:48.030Z,78.20
2022-11-02T05:55:16.737Z,78.40
2022-11-02T05:57:44.050Z,79.10
2022-11-02T06:00:12.227Z,80.30
2022-11-02T06:02:42.305Z,81.00
2022-11-02T06:05:09.917Z,81.20
2022-11-02T06:07:38.696Z,81.10
2022-11-02T06:10:07.553Z,81.00
2022-11-02T06:12:34.938Z,81.20
2022-11-02T06:15:02.269Z,81.40
2022-11-02T06:17:36.194Z,81.30
2022-11-02T06:20:04.074Z,81.00
2022-11-02T06:22:31.663Z,80.80
2022-11-02T06:24:59.132Z,80.80
2022-11-02T06:27:26.538Z,80.50
2022-11-02T06:29:54.239Z,80.50
2022-11-02T06:32:22.168Z,80.50
2022-11-02T06:34:49.510Z,80.70
2022-11-02T06:37:17.250Z,80.70
2022-11-02T06:39:44.831Z,80.90
2022-11-02T06:42:12.455Z,81.00
2022-11-02T06:44:40.153Z,81.20
2022-11-02T06:47:07.703Z,81.40
2022-11-02T06:49:35.090Z,81.60
2022-11-02T06:52:02.540Z,81.80
2022-11-02T06:54:29.866Z,81.90
2022-11-02T06:56:57.409Z,81.90
2022-11-02T06:59:24.733Z,81.90
2022-11-02T07:01:54.431Z,81.80
2022-11-02T07:04:22.278Z,81.90
2022-11-02T07:06:49.693Z,81.70
2022-11-02T07:09:17.058Z,81.50
2022-11-02T07:11:44.905Z,81.20
2022-11-02T07:14:12.694Z,80.70
2022-11-02T07:16:40.149Z,79.80
2022-11-02T07:19:07.526Z,78.70
2022-11-02T07:21:35.518Z,77.80
2022-11-02T07:24:02.935Z,77.30
2022-11-02T07:26:30.627Z,76.60
2022-11-02T07:28:59.453Z,74.30
2022-11-02T07:31:26.951Z,73.40
2022-11-02T07:33:54.512Z,73.80
2022-11-02T07:36:22.053Z,74.00
2022-11-02T07:38:49.602Z,72.60
2022-11-02T07:41:16.941Z,72.20
2022-11-02T07:43:44.332Z,71.00
2022-11-02T07:46:34.901Z,69.70
2022-11-02T07:49:02.282Z,67.60
2022-11-02T07:51:29.693Z,66.40
2022-11-02T07:53:57.230Z,66.50
2022-11-02T07:56:24.565Z,65.50
2022-11-02T07:58:52.176Z,63.70
2022-11-02T08:01:19.710Z,61.90
2022-11-02T08:03:47.838Z,60.90
2022-11-02T08:06:15.276Z,59.70
2022-11-02T08:08:43.002Z,59.50
2022-11-02T08:11:10.667Z,59.90
2022-11-02T08:13:38.535Z,59.70
2022-11-02T08:16:06.615Z,60.20
2022-11-02T08:18:34.265Z,60.80
2022-11-02T08:21:01.821Z,61.40
2022-11-02T08:23:29.182Z,61.80
2022-11-02T08:25:59.330Z,62.30
2022-11-02T08:28:31.678Z,62.40
2022-11-02T08:30:59.598Z,63.00
2022-11-02T08:33:28.205Z,63.30
2022-11-02T08:36:02.387Z,63.70
2022-11-02T08:38:30.431Z,63.80
2022-11-02T08:40:57.901Z,64.70
2022-11-02T08:43:25.349Z,65.00
2022-11-02T08:46:13.851Z,65.70
2022-11-02T08:48:41.081Z,65.90
2022-11-02T08:51:08.912Z,65.80
2022-11-02T08:53:36.366Z,65.90
2022-11-02T08:56:04.329Z,65.90
2022-11-02T08:58:31.754Z,66.10
2022-11-02T09:00:59.176Z,66.50
2022-11-02T09:03:28.196Z,66.40
2022-11-02T09:06:00.522Z,66.80
2022-11-02T09:08:29.173Z,66.30
2022-11-02T09:11:00.442Z,66.60
2022-11-02T09:13:28.623Z,66.90
2022-11-02T09:15:58.771Z,67.40
2022-11-02T09:18:32.408Z,67.20
2022-11-02T09:21:05.300Z,68.30
2022-11-02T09:23:33.375Z,67.90
2022-11-02T09:26:03.866Z,67.90
2022-11-02T09:28:34.496Z,68.20
2022-11-02T09:31:07.375Z,68.30
2022-11-02T09:33:38.418Z,69.00
2022-11-02T09:36:06.571Z,69.10
2022-11-02T09:38:37.051Z,69.30
2022-11-02T09:44:21.943Z,69.80
2022-11-02T09:47:28.036Z,68.90
2022-11-02T09:49:43.461Z,69.00
2022-11-02T09:52:24.530Z,68.40
2022-11-02T09:54:56.194Z,68.30
2022-11-02T09:57:32.469Z,68.50
2022-11-02T10:00:05.161Z,68.40
2022-11-02T10:03:02.591Z,68.60
2022-11-02T10:05:38.931Z,68.40
2022-11-02T10:08:09.780Z,68.90
2022-11-02T10:11:08.224Z,69.20
2022-11-02T10:13:58.855Z,69.10
2022-11-02T10:16:46.264Z,68.40
2022-11-02T10:19:18.491Z,68.00
2022-11-02T10:21:50.007Z,67.00
2022-11-02T10:24:57.544Z,67.00
2022-11-02T10:27:27.406Z,66.70
2022-11-02T10:30:05.564Z,66.10
2022-11-02T10:32:39.570Z,65.60
2022-11-02T10:35:51.340Z,65.50
2022-11-02T10:38:14.754Z,65.50
2022-11-02T10:40:58.155Z,65.50
2022-11-02T10:43:25.851Z,65.20
2022-11-02T10:46:50.953Z,64.70
2022-11-02T10:49:39.293Z,65.00
2022-11-02T10:52:08.430Z,64.10
2022-11-02T10:54:35.993Z,63.60
2022-11-02T10:57:14.041Z,63.10
2022-11-02T10:59:41.549Z,62.30
2022-11-02T11:02:14.599Z,61.70
2022-11-02T11:04:42.767Z,61.90
2022-11-02T11:07:33.789Z,61.50
2022-11-02T11:10:05.007Z,60.70
2022-11-02T11:12:37.914Z,60.50
2022-11-02T11:21:01.369Z,60.00
2022-11-02T11:23:30.175Z,59.80
2022-11-02T11:25:59.883Z,60.20
2022-11-02T11:28:40.827Z,60.80
2022-11-02T11:31:19.972Z,60.90
2022-11-02T11:33:53.271Z,60.80
2022-11-02T11:36:36.090Z,60.70
2022-11-02T11:39:31.720Z,60.60
2022-11-02T11:42:00.524Z,60.30
2022-11-02T11:44:28.295Z,60.20
2022-11-02T11:47:01.902Z,60.30
2022-11-02T11:49:55.169Z,59.90
2022-11-02T11:52:32.286Z,60.20
2022-11-02T11:55:18.985Z,60.30
2022-11-02T11:58:24.205Z,60.80
2022-11-02T12:01:38.223Z,60.70
2022-11-02T12:04:08.485Z,60.30
2022-11-02T12:06:45.302Z,59.90
2022-11-02T12:09:16.266Z,60.20
2022-11-02T12:11:58.289Z,59.90
2022-11-02T12:14:50.489Z,59.70
2022-11-02T12:17:29.549Z,59.60
2022-11-02T12:20:26.488Z,59.80
2022-11-02T12:23:15.569Z,60.00
2022-11-02T12:26:26.977Z,60.60
2022-11-02T12:29:24.525Z,60.20
2022-11-02T12:32:08.839Z,59.30
2022-11-02T12:35:02.819Z,59.20
2022-11-02T12:38:06.574Z,58.40
2022-11-02T12:40:49.596Z,58.10
2022-11-02T12:43:42.932Z,58.10
2022-11-02T12:46:39.036Z,58.20
2022-11-02T12:49:35.847Z,57.60
2022-11-02T12:52:22.693Z,57.70
2022-11-02T12:54:59.440Z,57.20
2022-11-02T12:57:30.479Z,57.30
2022-11-02T13:00:05.645Z,57.50
2022-11-02T13:02:50.249Z,57.50
2022-11-02T13:05:22.660Z,57.90
2022-11-02T13:07:59.858Z,57.60
2022-11-02T13:10:34.618Z,57.40
2022-11-02T13:13:07.862Z,57.40
2022-11-02T13:15:39.531Z,57.30
2022-11-02T13:18:39.606Z,57.50
2022-11-02T13:21:09.911Z,57.80
2022-11-02T13:23:46.190Z,57.50
2022-11-02T13:26:33.951Z,57.70
2022-11-02T13:29:26.995Z,58.10
2022-11-02T13:32:00.217Z,58.50
2022-11-02T13:34:34.889Z,58.10
2022-11-02T13:37:17.207Z,57.70
2022-11-02T13:39:54.509Z,57.90
2022-11-02T13:42:40.384Z,57.80
2022-11-02T13:45:16.865Z,57.80
2022-11-02T13:48:04.437Z,57.80
2022-11-02T13:50:44.957Z,57.90
2022-11-02T13:53:22.054Z,58.00
2022-11-02T13:55:57.083Z,58.20
2022-11-02T13:58:31.282Z,58.10
2022-11-02T14:01:06.164Z,58.00
2022-11-02T14:03:50.751Z,58.20
2022-11-02T14:06:21.321Z,58.30
2022-11-02T14:08:56.876Z,58.20
2022-11-02T14:11:44.814Z,58.50
2022-11-02T14:14:25.277Z,58.60
2022-11-02T14:16:52.758Z,58.80
2022-11-02T14:19:22.297Z,59.00
2022-11-02T14:21:59.978Z,59.10
2022-11-02T14:24:34.356Z,59.20
2022-11-02T14:27:14.733Z,59.40
2022-11-02T14:29:44.656Z,59.40
2022-11-02T14:32:26.738Z,59.70
2022-11-02T14:35:04.465Z,59.80
2022-11-02T14:38:02.759Z,59.90
2022-11-02T14:40:58.542Z,60.20
2022-11-02T14:44:04.158Z,60.70
2022-11-02T14:46:58.990Z,60.60
2022-11-02T14:49:33.266Z,60.80
2022-11-02T14:52:07.453Z,60.90
2022-11-02T14:54:46.406Z,60.80
2022-11-02T14:57:25.073Z,61.60
2022-11-02T14:59:54.950Z,60.90
2022-11-02T15:02:24.171Z,61.20
2022-11-02T15:04:54.988Z,61.20
2022-11-02T15:07:31.637Z,61.30
2022-11-02T15:10:03.943Z,61.40
2022-11-02T15:12:33.763Z,61.50
2022-11-02T15:15:06.265Z,61.30
2022-11-02T15:17:33.786Z,61.00
2022-11-02T15:20:14.246Z,60.40
2022-11-02T15:22:55.230Z,60.30
2022-11-02T15:25:26.712Z,59.70
2022-11-02T15:28:03.136Z,59.80
2022-11-02T15:30:32.635Z,59.80
2022-11-02T15:33:04.275Z,60.00
2022-11-02T15:35:37.635Z,60.00
2022-11-02T15:38:30.507Z,60.00
2022-11-02T15:41:06.386Z,60.00
2022-11-02T15:44:12.589Z,60.30
2022-11-02T15:46:58.020Z,60.70
2022-11-02T15:49:58.189Z,60.70
2022-11-02T15:53:21.126Z,61.00
2022-11-02T15:56:09.825Z,61.60
2022-11-02T15:58:40.209Z,61.80
2022-11-02T16:01:23.865Z,61.80
2022-11-02T16:03:58.869Z,62.20
2022-11-02T16:06:29.487Z,62.40
2022-11-02T16:08:59.408Z,62.60
2022-11-02T16:11:27.361Z,62.90
2022-11-02T16:14:16.122Z,63.20
2022-11-02T16:16:53.282Z,63.50
2022-11-02T16:19:23.582Z,63.60
2022-11-02T16:21:59.996Z,63.80
2022-11-02T16:24:29.236Z,63.80
2022-11-02T16:27:00.360Z,64.00
2022-11-02T16:29:32.283Z,64.30
2022-11-02T16:32:02.504Z,64.60
2022-11-02T16:34:35.144Z,64.80
2022-11-02T16:37:09.970Z,64.80
2022-11-02T16:39:42.200Z,65.00
2022-11-02T16:42:26.921Z,65.10
2022-11-02T16:45:05.074Z,65.60
2022-11-02T16:47:41.452Z,65.80
2022-11-02T16:50:26.724Z,65.90
2022-11-02T16:53:01.263Z,65.90
2022-11-02T16:55:40.985Z,65.80
2022-11-02T16:58:23.244Z,65.90
2022-11-02T17:01:03.991Z,65.90
2022-11-02T17:03:33.954Z,66.30
2022-11-02T17:06:08.524Z,66.20
2022-11-02T17:08:38.232Z,67.00
2022-11-02T17:11:07.719Z,66.30
2022-11-02T17:13:38.687Z,66.30
2022-11-02T17:16:11.569Z,66.60
2022-11-02T17:18:39.499Z,66.60
2022-11-02T17:21:12.734Z,66.60
2022-11-02T17:23:46.000Z,67.00
2022-11-02T17:26:22.757Z,67.10
2022-11-02T17:29:10.009Z,67.20
2022-11-02T17:31:41.123Z,67.00
2022-11-02T17:34:15.351Z,67.40
2022-11-02T17:36:44.838Z,67.40
2022-11-02T17:39:14.389Z,67.70
2022-11-02T17:42:07.710Z,68.10
2022-11-02T17:44:35.277Z,68.30
2022-11-02T17:47:05.682Z,68.00
2022-11-02T17:49:33.146Z,68.20
2022-11-02T17:52:00.572Z,68.10
2022-11-02T17:54:28.785Z,68.30
2022-11-02T17:56:56.397Z,68.40
2022-11-02T17:59:24.021Z,68.50
2022-11-02T18:01:52.106Z,68.60
2022-11-02T18:04:19.607Z,68.70
2022-11-02T18:06:47.043Z,68.90
2022-11-02T18:09:19.001Z,69.30
2022-11-02T18:11:46.676Z,69.40
2022-11-02T18:14:16.797Z,69.50
2022-11-02T18:16:44.675Z,69.80
2022-11-02T18:19:12.377Z,69.80
2022-11-02T18:21:39.741Z,69.90
2022-11-02T18:24:07.319Z,70.30
2022-11-02T18:26:35.741Z,70.10
2022-11-02T18:29:04.428Z,70.00
2022-11-02T18:31:32.492Z,69.90
2022-11-02T18:33:59.772Z,70.00
2022-11-02T18:36:27.390Z,70.10
2022-11-02T18:38:54.910Z,70.30
2022-11-02T18:41:29.789Z,70.20
2022-11-02T18:44:04.105Z,70.10
2022-11-02T18:46:33.259Z,70.00
2022-11-02T18:49:00.807Z,70.00
2022-11-02T18:51:28.810Z,70.20
2022-11-02T18:54:04.845Z,70.40
2022-11-02T18:56:32.679Z,70.80
2022-11-02T18:58:59.907Z,71.00
2022-11-02T19:01:28.170Z,71.20
2022-11-02T19:03:58.151Z,71.50
2022-11-02T19:06:47.826Z,71.60
2022-11-02T19:09:19.515Z,71.70
2022-11-02T19:11:48.968Z,71.80
2022-11-02T19:14:17.539Z,71.50
2022-11-02T19:16:44.994Z,71.80
2022-11-02T19:19:12.457Z,71.70
2022-11-02T19:21:40.038Z,71.70
2022-11-02T19:24:08.316Z,71.70
2022-11-02T19:26:36.382Z,71.50
2022-11-02T19:29:06.351Z,71.50
2022-11-02T19:31:35.581Z,71.60
2022-11-02T19:34:03.377Z,71.50
2022-11-02T19:36:31.380Z,71.30
2022-11-02T19:39:00.128Z,71.40
2022-11-02T19:41:27.663Z,71.40
2022-11-02T19:43:57.198Z,71.50
2022-11-02T19:46:26.159Z,71.60
2022-11-02T19:48:55.485Z,71.80
2022-11-02T19:51:28.437Z,71.90
2022-11-02T19:53:58.369Z,71.90
2022-11-02T19:56:27.591Z,71.70
2022-11-02T19:58:55.919Z,71.90
2022-11-02T20:01:32.558Z,71.90
2022-11-02T20:04:00.710Z,72.10
2022-11-02T20:06:36.918Z,72.10
2022-11-02T20:09:06.983Z,72.10
2022-11-02T20:11:36.033Z,72.20
2022-11-02T20:14:05.382Z,72.30
2022-11-02T20:16:32.794Z,72.50
2022-11-02T20:19:00.434Z,72.80
2022-11-02T20:21:35.656Z,72.80
2022-11-02T20:24:06.326Z,72.80
2022-11-02T20:26:35.641Z,72.80
2022-11-02T20:29:04.395Z,72.90
2022-11-02T20:31:38.183Z,73.20
2022-11-02T20:34:07.455Z,73.20
2022-11-02T20:36:35.280Z,73.30
2022-11-02T20:39:04.924Z,73.30
2022-11-02T20:41:32.597Z,73.20
2022-11-02T20:44:00.102Z,73.00
2022-11-02T20:46:39.081Z,72.70
2022-11-02T20:49:21.104Z,72.80
2022-11-02T20:51:56.626Z,72.70
2022-11-02T20:54:25.117Z,72.80
2022-11-02T20:56:52.681Z,72.70
2022-11-02T20:59:20.055Z,72.90
2022-11-02T21:01:47.699Z,72.90
2022-11-02T21:04:20.372Z,73.20
2022-11-02T21:06:49.475Z,73.40
2022-11-02T21:09:17.712Z,73.40
2022-11-02T21:12:03.861Z,73.60
2022-11-02T21:14:31.466Z,73.60
2022-11-02T21:16:58.962Z,73.50
2022-11-02T21:19:26.251Z,73.40
2022-11-02T21:21:59.433Z,73.30
2022-11-02T21:24:28.786Z,73.30
2022-11-02T21:26:56.161Z,73.40
2022-11-02T21:29:23.757Z,73.60
2022-11-02T21:31:51.047Z,73.60
2022-11-02T21:34:18.520Z,73.40
2022-11-02T21:36:48.378Z,73.30
2022-11-02T21:39:15.986Z,73.30
2022-11-02T21:41:43.670Z,73.30
2022-11-02T21:44:11.936Z,73.30
2022-11-02T21:46:39.405Z,73.10
2022-11-02T21:49:06.889Z,72.90
2022-11-02T21:51:35.110Z,73.00
2022-11-02T21:54:02.323Z,73.00
2022-11-02T21:56:31.730Z,73.00
2022-11-02T21:58:59.228Z,73.30
2022-11-02T22:01:45.663Z,73.30
2022-11-02T22:04:28.944Z,73.20
2022-11-02T22:06:56.717Z,73.10
2022-11-02T22:09:24.626Z,73.10
2022-11-02T22:12:10.629Z,73.30
2022-11-02T22:14:38.909Z,73.50
2022-11-02T22:17:16.498Z,73.50
2022-11-02T22:19:50.676Z,73.50
2022-11-02T22:22:18.586Z,73.60
2022-11-02T22:24:45.806Z,73.60
2022-11-02T22:27:13.246Z,73.80
2022-11-02T22:29:40.926Z,73.90
2022-11-02T22:32:08.402Z,74.00
2022-11-02T22:34:35.630Z,74.20
2022-11-02T22:37:21.772Z,74.20
2022-11-02T22:39:48.941Z,74.10
2022-11-02T22:42:16.417Z,74.00
2022-11-02T22:44:43.647Z,73.90
2022-11-02T22:47:10.946Z,74.00
2022-11-02T22:49:38.414Z,74.00
2022-11-02T22:52:05.902Z,74.00
2022-11-02T22:54:33.485Z,74.00
2022-11-02T22:57:01.061Z,74.00
2022-11-02T22:59:28.538Z,73.90
2022-11-02T23:01:55.940Z,73.90
2022-11-02T23:04:23.366Z,74.10
2022-11-02T23:06:50.538Z,73.90
2022-11-02T23:09:17.930Z,73.90
2022-11-02T23:11:45.437Z,73.80
2022-11-02T23:14:14.793Z,73.70
2022-11-02T23:16:46.869Z,73.80
2022-11-02T23:19:25.212Z,74.30
2022-11-02T23:22:28.137Z,74.20
2022-11-02T23:25:14.802Z,74.20
2022-11-02T23:28:06.192Z,74.10
2022-11-02T23:30:54.271Z,74.10
2022-11-02T23:33:23.079Z,74.00
2022-11-02T23:36:09.338Z,74.00
2022-11-02T23:38:56.003Z,74.10
2022-11-02T23:41:25.165Z,74.30
2022-11-02T23:44:11.365Z,74.20
2022-11-02T23:46:40.640Z,74.50
2022-11-02T23:49:08.531Z,74.80
2022-11-02T23:51:54.442Z,74.80
2022-11-02T23:54:40.751Z,74.80
2022-11-02T23:57:08.058Z,74.80
2022-11-02T23:59:35.675Z,74.90
